createdAt,value
2022-08-17T00:00:43.701Z,22.49
2022-08-17T00:03:11.275Z,22.44
2022-08-17T00:05:44.835Z,22.39
2022-08-17T00:08:15.359Z,22.38
2022-08-17T00:10:45.570Z,22.36
2022-08-17T00:13:25.777Z,22.32
2022-08-17T00:15:58.700Z,22.29
2022-08-17T00:19:00.936Z,22.25
2022-08-17T00:21:23.794Z,22.20
2022-08-17T00:23:54.199Z,22.18
2022-08-17T00:26:43.998Z,22.15
2022-08-17T00:29:19.957Z,22.09
2022-08-17T00:31:48.981Z,22.05
2022-08-17T00:34:17.879Z,22.02
2022-08-17T00:36:46.375Z,22.00
2022-08-17T00:39:14.712Z,21.97
2022-08-17T00:41:43.312Z,21.92
2022-08-17T00:44:13.217Z,21.89
2022-08-17T00:46:44.394Z,21.85
2022-08-17T00:49:14.334Z,21.79
2022-08-17T00:51:47.715Z,21.78
2022-08-17T00:54:22.543Z,21.74
2022-08-17T00:56:55.577Z,21.71
2022-08-17T00:59:33.555Z,21.69
2022-08-17T01:02:02.773Z,21.65
2022-08-17T01:04:32.877Z,21.64
2022-08-17T01:07:03.328Z,21.63
2022-08-17T01:09:33.131Z,21.60
2022-08-17T01:12:01.856Z,21.57
2022-08-17T01:14:31.627Z,21.55
2022-08-17T01:17:00.301Z,21.51
2022-08-17T01:19:34.296Z,21.47
2022-08-17T01:22:08.966Z,21.43
2022-08-17T01:24:41.587Z,21.38
2022-08-17T01:27:11.062Z,21.37
2022-08-17T01:29:42.849Z,21.33
2022-08-17T01:32:11.988Z,21.31
2022-08-17T01:34:43.787Z,21.28
2022-08-17T01:37:20.843Z,21.23
2022-08-17T01:39:55.701Z,21.19
2022-08-17T01:42:38.180Z,21.15
2022-08-17T01:45:11.613Z,21.12
2022-08-17T01:47:41.761Z,21.11
2022-08-17T01:50:16.390Z,21.08
2022-08-17T01:52:47.129Z,21.08
2022-08-17T01:55:20.861Z,21.05
2022-08-17T01:57:51.843Z,21.06
2022-08-17T02:00:20.327Z,21.03
2022-08-17T02:02:48.869Z,21.00
2022-08-17T02:05:18.393Z,20.97
2022-08-17T02:07:59.581Z,20.94
2022-08-17T02:10:33.876Z,20.88
2022-08-17T02:13:03.121Z,20.86
2022-08-17T02:15:32.046Z,20.85
2022-08-17T02:18:00.707Z,20.81
2022-08-17T02:20:41.809Z,20.80
2022-08-17T02:23:13.457Z,20.76
2022-08-17T02:25:45.162Z,20.72
2022-08-17T02:28:13.666Z,20.71
2022-08-17T02:31:00.094Z,20.67
2022-08-17T02:33:42.110Z,20.63
2022-08-17T02:36:13.942Z,20.60
2022-08-17T02:38:43.392Z,20.59
2022-08-17T02:41:13.431Z,20.58
2022-08-17T02:43:41.946Z,20.56
2022-08-17T02:46:12.629Z,20.54
2022-08-17T02:48:41.035Z,20.50
2022-08-17T02:51:09.484Z,20.46
2022-08-17T02:53:37.832Z,20.42
2022-08-17T02:56:06.448Z,20.41
2022-08-17T02:58:36.340Z,20.39
2022-08-17T03:01:06.465Z,20.37
2022-08-17T03:03:35.580Z,20.33
2022-08-17T03:06:05.278Z,20.30
2022-08-17T03:08:33.570Z,20.28
2022-08-17T03:11:01.904Z,20.26
2022-08-17T03:13:30.875Z,20.23
2022-08-17T03:16:00.732Z,20.20
2022-08-17T03:18:29.266Z,20.18
2022-08-17T03:21:01.230Z,20.16
2022-08-17T03:23:31.118Z,20.14
2022-08-17T03:26:00.297Z,20.13
2022-08-17T03:28:29.382Z,20.09
2022-08-17T03:30:57.760Z,20.08
2022-08-17T03:33:27.588Z,20.04
2022-08-17T03:35:56.270Z,20.01
2022-08-17T03:38:24.870Z,19.99
2022-08-17T03:40:56.389Z,19.97
2022-08-17T03:43:29.706Z,19.94
2022-08-17T03:46:27.775Z,19.91
2022-08-17T03:49:19.430Z,19.88
2022-08-17T03:52:05.246Z,19.86
2022-08-17T03:55:05.235Z,19.85
2022-08-17T03:57:33.927Z,19.82
2022-08-17T04:00:02.298Z,19.80
2022-08-17T04:02:34.230Z,19.78
2022-08-17T04:05:04.275Z,19.79
2022-08-17T04:07:33.092Z,19.77
2022-08-17T04:10:01.831Z,19.77
2022-08-17T04:12:44.169Z,19.74
2022-08-17T04:15:13.928Z,19.74
2022-08-17T04:17:44.225Z,19.72
2022-08-17T04:20:16.441Z,19.72
2022-08-17T04:22:58.361Z,19.71
2022-08-17T04:25:28.450Z,19.71
2022-08-17T04:27:57.991Z,19.71
2022-08-17T04:30:27.855Z,19.70
2022-08-17T04:33:05.837Z,19.71
2022-08-17T04:35:40.317Z,19.70
2022-08-17T04:38:14.020Z,19.72
2022-08-17T04:41:00.576Z,19.72
2022-08-17T04:43:30.975Z,19.71
2022-08-17T04:46:02.796Z,19.71
2022-08-17T04:48:37.433Z,19.71
2022-08-17T04:51:11.628Z,19.72
2022-08-17T04:53:42.283Z,19.73
2022-08-17T04:56:17.008Z,19.77
2022-08-17T04:58:51.773Z,19.77
2022-08-17T05:01:23.127Z,19.80
2022-08-17T05:03:53.213Z,19.81
2022-08-17T05:06:23.635Z,19.84
2022-08-17T05:08:51.974Z,19.86
2022-08-17T05:11:20.921Z,19.90
2022-08-17T05:13:50.711Z,19.92
2022-08-17T05:16:20.331Z,19.94
2022-08-17T05:18:49.032Z,19.99
2022-08-17T05:21:19.077Z,20.04
2022-08-17T05:23:53.895Z,20.07
2022-08-17T05:26:26.534Z,20.13
2022-08-17T05:28:59.471Z,20.16
2022-08-17T05:31:29.964Z,20.20
2022-08-17T05:33:58.708Z,20.25
2022-08-17T05:36:41.592Z,20.29
2022-08-17T05:39:16.668Z,20.35
2022-08-17T05:41:49.335Z,20.40
2022-08-17T05:44:18.346Z,20.46
2022-08-17T05:46:51.576Z,20.55
2022-08-17T05:49:27.512Z,20.62
2022-08-17T05:52:20.030Z,20.70
2022-08-17T05:55:04.975Z,20.77
2022-08-17T05:57:57.259Z,20.84
2022-08-17T06:00:30.665Z,20.94
2022-08-17T06:03:20.492Z,21.04
2022-08-17T06:06:05.943Z,21.13
2022-08-17T06:08:40.730Z,21.27
2022-08-17T06:11:22.762Z,21.39
2022-08-17T06:14:18.174Z,21.54
2022-08-17T06:16:51.302Z,21.66
2022-08-17T06:19:25.656Z,21.80
2022-08-17T06:21:56.090Z,21.93
2022-08-17T06:24:35.410Z,22.07
2022-08-17T06:27:17.839Z,22.20
2022-08-17T06:29:55.907Z,22.33
2022-08-17T06:32:25.119Z,22.48
2022-08-17T06:34:54.356Z,22.62
2022-08-17T06:37:56.800Z,22.76
2022-08-17T06:40:50.809Z,22.94
2022-08-17T06:43:35.459Z,23.12
2022-08-17T06:46:11.420Z,23.29
2022-08-17T06:48:47.207Z,23.45
2022-08-17T06:51:23.992Z,23.64
2022-08-17T06:54:00.778Z,23.81
2022-08-17T06:56:54.723Z,24.00
2022-08-17T06:59:54.225Z,24.20
2022-08-17T07:02:52.843Z,24.44
2022-08-17T07:05:25.523Z,24.61
2022-08-17T07:08:03.238Z,24.80
2022-08-17T07:10:40.775Z,24.98
2022-08-17T07:13:29.496Z,25.16
2022-08-17T07:16:26.065Z,25.36
2022-08-17T07:18:56.219Z,25.55
2022-08-17T07:21:40.932Z,25.71
2022-08-17T07:24:29.715Z,25.87
2022-08-17T07:27:18.204Z,26.05
2022-08-17T07:29:51.730Z,26.21
2022-08-17T07:32:26.843Z,26.39
2022-08-17T07:35:10.622Z,26.56
2022-08-17T07:37:41.308Z,26.75
2022-08-17T07:40:28.151Z,26.89
2022-08-17T07:43:23.267Z,27.06
2022-08-17T07:46:36.763Z,27.24
2022-08-17T07:49:36.257Z,27.40
2022-08-17T07:52:48.275Z,27.54
2022-08-17T07:54:58.109Z,27.72
2022-08-17T07:57:35.674Z,27.87
2022-08-17T08:00:24.363Z,28.07
2022-08-17T08:03:16.647Z,28.25
2022-08-17T08:06:00.210Z,28.44
2022-08-17T08:08:36.876Z,28.63
2022-08-17T08:11:10.028Z,28.82
2022-08-17T08:13:42.709Z,29.03
2022-08-17T08:16:26.419Z,29.19
2022-08-17T08:18:59.008Z,29.39
2022-08-17T08:21:47.219Z,29.57
2022-08-17T08:24:50.172Z,29.74
2022-08-17T08:27:33.546Z,29.94
2022-08-17T08:30:09.271Z,30.11
2022-08-17T08:33:04.158Z,30.26
2022-08-17T08:35:37.275Z,30.45
2022-08-17T08:38:20.324Z,30.60
2022-08-17T08:41:05.610Z,30.78
2022-08-17T08:43:52.243Z,30.95
2022-08-17T08:46:32.081Z,31.17
2022-08-17T08:50:01.264Z,31.39
2022-08-17T08:52:42.215Z,31.59
2022-08-17T08:55:23.315Z,31.76
2022-08-17T08:57:58.167Z,31.95
2022-08-17T09:00:28.198Z,32.12
2022-08-17T09:03:53.268Z,32.34
2022-08-17T09:06:39.284Z,32.51
2022-08-17T09:09:21.436Z,32.69
2022-08-17T09:12:09.903Z,32.86
2022-08-17T09:14:46.645Z,33.04
2022-08-17T09:17:20.528Z,33.23
2022-08-17T09:19:55.937Z,33.41
2022-08-17T09:22:33.405Z,33.58
2022-08-17T09:25:10.397Z,33.76
2022-08-17T09:27:52.606Z,33.94
2022-08-17T09:30:23.712Z,34.11
2022-08-17T09:32:58.916Z,34.27
2022-08-17T09:35:36.899Z,34.41
2022-08-17T09:38:20.452Z,34.50
2022-08-17T09:40:54.178Z,34.67
2022-08-17T09:43:35.336Z,34.80
2022-08-17T09:46:11.221Z,34.90
2022-08-17T09:48:44.979Z,35.03
2022-08-17T09:51:21.150Z,35.10
2022-08-17T09:53:50.143Z,35.18
2022-08-17T09:56:46.183Z,35.23
2022-08-17T09:59:38.679Z,35.31
2022-08-17T10:02:40.552Z,35.41
2022-08-17T10:05:14.831Z,35.43
2022-08-17T10:07:48.959Z,35.46
2022-08-17T10:10:24.988Z,35.52
2022-08-17T10:13:01.153Z,35.61
2022-08-17T10:15:49.765Z,35.70
2022-08-17T10:18:39.380Z,35.74
2022-08-17T10:21:34.160Z,35.76
2022-08-17T10:24:34.299Z,35.75
2022-08-17T10:27:10.701Z,35.76
2022-08-17T10:29:48.992Z,35.80
2022-08-17T10:32:32.115Z,35.89
2022-08-17T10:35:34.049Z,36.01
2022-08-17T10:38:37.512Z,36.15
2022-08-17T10:41:22.210Z,36.25
2022-08-17T10:44:38.120Z,36.41
2022-08-17T10:47:06.700Z,36.55
2022-08-17T10:49:37.394Z,36.70
2022-08-17T10:52:50.229Z,36.76
2022-08-17T10:55:21.449Z,36.86
2022-08-17T10:57:54.864Z,36.95
2022-08-17T11:00:59.961Z,37.06
2022-08-17T11:03:28.676Z,37.14
2022-08-17T11:06:15.915Z,37.22
2022-08-17T11:09:24.281Z,37.32
2022-08-17T11:12:19.029Z,37.42
2022-08-17T11:15:11.209Z,37.52
2022-08-17T11:18:01.516Z,37.63
2022-08-17T11:21:18.558Z,37.78
2022-08-17T11:24:20.642Z,37.83
2022-08-17T11:27:12.372Z,37.86
2022-08-17T11:29:54.206Z,37.92
2022-08-17T11:32:47.070Z,37.99
2022-08-17T11:35:34.751Z,38.07
2022-08-17T11:38:17.756Z,38.16
2022-08-17T11:41:17.464Z,38.23
2022-08-17T11:44:04.183Z,38.32
2022-08-17T11:47:08.789Z,38.44
2022-08-17T11:50:17.137Z,38.51
2022-08-17T11:52:49.043Z,38.60
2022-08-17T11:56:04.783Z,38.63
2022-08-17T11:58:42.775Z,38.63
2022-08-17T12:01:16.193Z,38.64
2022-08-17T12:03:58.860Z,38.58
2022-08-17T12:06:46.191Z,38.57
2022-08-17T12:09:20.745Z,38.57
2022-08-17T12:12:12.158Z,38.59
2022-08-17T12:15:09.577Z,38.57
2022-08-17T12:17:41.162Z,38.62
2022-08-17T12:20:17.178Z,38.65
2022-08-17T12:22:57.596Z,38.67
2022-08-17T12:25:35.683Z,38.72
2022-08-17T12:28:07.606Z,38.78
2022-08-17T12:30:37.876Z,38.84
2022-08-17T12:33:25.629Z,38.86
2022-08-17T12:36:00.638Z,38.92
2022-08-17T12:38:32.275Z,38.94
2022-08-17T12:41:24.477Z,38.92
2022-08-17T12:44:02.803Z,38.82
2022-08-17T12:46:34.904Z,38.82
2022-08-17T12:49:15.490Z,38.80
2022-08-17T12:51:45.933Z,38.78
2022-08-17T12:54:28.501Z,38.78
2022-08-17T12:56:57.502Z,38.81
2022-08-17T12:59:29.706Z,38.81
2022-08-17T13:01:59.200Z,38.81
2022-08-17T13:04:29.550Z,38.80
2022-08-17T13:06:59.933Z,38.84
2022-08-17T13:09:40.096Z,38.80
2022-08-17T13:12:09.579Z,38.76
2022-08-17T13:14:39.412Z,38.69
2022-08-17T13:17:13.344Z,38.65
2022-08-17T13:19:51.001Z,38.62
2022-08-17T13:22:25.309Z,38.64
2022-08-17T13:24:57.642Z,38.69
2022-08-17T13:27:29.753Z,38.71
2022-08-17T13:30:02.604Z,38.75
2022-08-17T13:32:43.893Z,38.74
2022-08-17T13:35:50.518Z,38.70
2022-08-17T13:38:41.098Z,38.67
2022-08-17T13:41:09.528Z,38.66
2022-08-17T13:43:50.545Z,38.64
2022-08-17T13:46:24.351Z,38.63
2022-08-17T13:49:02.636Z,38.62
2022-08-17T13:51:45.819Z,38.61
2022-08-17T13:54:29.215Z,38.58
2022-08-17T13:57:02.421Z,38.57
2022-08-17T13:59:54.688Z,38.58
2022-08-17T14:02:28.772Z,38.60
2022-08-17T14:07:37.232Z,38.64
2022-08-17T14:10:12.265Z,38.63
2022-08-17T14:12:43.518Z,38.67
2022-08-17T14:15:16.429Z,38.65
2022-08-17T14:17:46.672Z,38.72
2022-08-17T14:20:17.131Z,38.76
2022-08-17T14:22:49.484Z,38.78
2022-08-17T14:25:21.860Z,38.76
2022-08-17T14:27:53.594Z,38.75
2022-08-17T14:30:25.394Z,38.76
2022-08-17T14:32:56.471Z,38.76
2022-08-17T14:35:27.853Z,38.74
2022-08-17T14:37:57.062Z,38.72
2022-08-17T14:40:26.320Z,38.70
2022-08-17T14:42:56.646Z,38.67
2022-08-17T14:45:32.003Z,38.60
2022-08-17T14:48:05.779Z,38.55
2022-08-17T14:50:35.369Z,38.50
2022-08-17T14:53:05.864Z,38.41
2022-08-17T14:55:34.545Z,38.34
2022-08-17T14:58:04.014Z,38.28
2022-08-17T15:00:32.526Z,38.18
2022-08-17T15:03:03.495Z,38.10
2022-08-17T15:05:35.245Z,38.03
2022-08-17T15:08:05.650Z,37.96
2022-08-17T15:10:34.596Z,37.86
2022-08-17T15:13:03.156Z,37.80
2022-08-17T15:15:32.047Z,37.72
2022-08-17T15:18:01.196Z,37.68
2022-08-17T15:20:31.707Z,37.63
2022-08-17T15:23:00.247Z,37.61
2022-08-17T15:25:32.088Z,37.56
2022-08-17T15:28:01.330Z,37.54
2022-08-17T15:30:31.025Z,37.51
2022-08-17T15:33:01.813Z,37.51
2022-08-17T15:35:34.699Z,37.51
2022-08-17T15:38:12.140Z,37.49
2022-08-17T15:40:45.082Z,37.48
2022-08-17T15:43:20.119Z,37.46
2022-08-17T15:46:01.795Z,37.45
2022-08-17T15:48:42.102Z,37.47
2022-08-17T15:51:15.863Z,37.50
2022-08-17T15:53:46.691Z,37.54
2022-08-17T15:56:15.503Z,37.56
2022-08-17T15:58:46.649Z,37.55
2022-08-17T16:01:31.331Z,37.57
2022-08-17T16:04:07.133Z,37.53
2022-08-17T16:06:56.106Z,37.53
2022-08-17T16:09:24.557Z,37.52
2022-08-17T16:11:55.714Z,37.50
2022-08-17T16:14:25.266Z,37.48
2022-08-17T16:17:02.103Z,37.46
2022-08-17T16:19:30.555Z,37.41
2022-08-17T16:22:00.787Z,37.35
2022-08-17T16:24:29.643Z,37.28
2022-08-17T16:26:58.103Z,37.21
2022-08-17T16:29:26.652Z,37.17
2022-08-17T16:31:55.992Z,37.08
2022-08-17T16:34:24.700Z,37.03
2022-08-17T16:36:56.138Z,36.95
2022-08-17T16:39:29.079Z,36.89
2022-08-17T16:41:58.189Z,36.80
2022-08-17T16:44:30.973Z,36.74
2022-08-17T16:47:00.993Z,36.68
2022-08-17T16:49:36.929Z,36.59
2022-08-17T16:52:11.294Z,36.48
2022-08-17T16:54:45.478Z,36.40
2022-08-17T16:57:17.444Z,36.31
2022-08-17T16:59:51.444Z,36.21
2022-08-17T17:02:28.692Z,36.12
2022-08-17T17:05:05.092Z,36.04
2022-08-17T17:07:51.035Z,35.92
2022-08-17T17:10:26.050Z,35.81
2022-08-17T17:13:01.934Z,35.71
2022-08-17T17:15:51.775Z,35.58
2022-08-17T17:18:26.946Z,35.46
2022-08-17T17:20:58.450Z,35.36
2022-08-17T17:23:44.875Z,35.21
2022-08-17T17:26:51.651Z,35.04
2022-08-17T17:29:48.325Z,34.91
2022-08-17T17:32:23.072Z,34.77
2022-08-17T17:34:58.848Z,34.62
2022-08-17T17:37:33.945Z,34.52
2022-08-17T17:40:09.608Z,34.38
2022-08-17T17:42:42.706Z,34.26
2022-08-17T17:45:20.399Z,34.12
2022-08-17T17:47:49.629Z,34.01
2022-08-17T17:50:20.841Z,33.92
2022-08-17T17:53:00.408Z,33.80
2022-08-17T17:55:45.616Z,33.67
2022-08-17T17:58:33.013Z,33.55
2022-08-17T18:01:21.398Z,33.43
2022-08-17T18:04:20.681Z,33.31
2022-08-17T18:07:16.700Z,33.16
2022-08-17T18:10:19.590Z,33.04
2022-08-17T18:13:10.385Z,32.92
2022-08-17T18:15:51.161Z,32.81
2022-08-17T18:18:37.814Z,32.70
2022-08-17T18:21:15.842Z,32.60
2022-08-17T18:23:56.835Z,32.49
2022-08-17T18:26:43.808Z,32.38
2022-08-17T18:29:34.452Z,32.28
2022-08-17T18:32:35.494Z,32.15
2022-08-17T18:35:31.457Z,32.03
2022-08-17T18:38:21.953Z,31.93
2022-08-17T18:41:03.019Z,31.84
2022-08-17T18:43:44.036Z,31.76
2022-08-17T18:46:30.099Z,31.67
2022-08-17T18:49:03.179Z,31.58
2022-08-17T18:51:42.194Z,31.51
2022-08-17T18:54:22.449Z,31.41
2022-08-17T18:56:55.361Z,31.35
2022-08-17T18:59:33.573Z,31.25
2022-08-17T19:02:36.098Z,31.15
2022-08-17T19:05:27.863Z,31.05
2022-08-17T19:08:20.285Z,30.97
2022-08-17T19:10:52.021Z,30.90
2022-08-17T19:13:26.216Z,30.82
2022-08-17T19:16:13.814Z,30.75
2022-08-17T19:18:49.463Z,30.68
2022-08-17T19:21:24.651Z,30.61
2022-08-17T19:24:00.433Z,30.52
2022-08-17T19:26:54.856Z,30.46
2022-08-17T19:29:26.668Z,30.37
2022-08-17T19:32:00.301Z,30.31
2022-08-17T19:34:35.464Z,30.24
2022-08-17T19:37:11.856Z,30.15
2022-08-17T19:39:50.973Z,30.06
2022-08-17T19:42:33.958Z,30.00
2022-08-17T19:45:09.366Z,29.89
2022-08-17T19:47:57.846Z,29.83
2022-08-17T19:50:39.131Z,29.75
2022-08-17T19:53:33.201Z,29.66
2022-08-17T19:56:22.293Z,29.57
2022-08-17T19:59:01.309Z,29.50
2022-08-17T20:01:38.536Z,29.43
2022-08-17T20:04:15.847Z,29.37
2022-08-17T20:06:49.366Z,29.32
2022-08-17T20:09:36.335Z,29.20
2022-08-17T20:12:10.626Z,29.13
2022-08-17T20:14:53.912Z,29.06
2022-08-17T20:17:28.281Z,28.99
2022-08-17T20:20:07.540Z,28.90
2022-08-17T20:22:56.094Z,28.83
2022-08-17T20:25:36.961Z,28.75
2022-08-17T20:28:24.887Z,28.68
2022-08-17T20:30:53.917Z,28.62
2022-08-17T20:33:28.840Z,28.55
2022-08-17T20:36:21.013Z,28.44
2022-08-17T20:38:53.603Z,28.40
2022-08-17T20:41:25.773Z,28.32
2022-08-17T20:44:06.538Z,28.25
2022-08-17T20:46:56.895Z,28.16
2022-08-17T20:49:37.091Z,28.09
2022-08-17T20:52:09.967Z,28.03
2022-08-17T20:54:51.804Z,27.94
2022-08-17T20:57:53.991Z,27.84
2022-08-17T21:00:46.321Z,27.77
2022-08-17T21:03:52.278Z,27.68
2022-08-17T21:06:26.295Z,27.61
2022-08-17T21:08:59.315Z,27.56
2022-08-17T21:12:00.028Z,27.50
2022-08-17T21:14:58.683Z,27.41
2022-08-17T21:17:46.501Z,27.36
2022-08-17T21:20:32.513Z,27.31
2022-08-17T21:23:28.469Z,27.24
2022-08-17T21:26:21.101Z,27.18
2022-08-17T21:29:29.558Z,27.14
2022-08-17T21:32:24.155Z,27.08
2022-08-17T21:35:28.618Z,27.03
2022-08-17T21:38:05.166Z,26.99
2022-08-17T21:40:35.483Z,26.95
2022-08-17T21:43:23.404Z,26.90
2022-08-17T21:46:24.429Z,26.85
2022-08-17T21:48:57.261Z,26.84
2022-08-17T21:51:28.183Z,26.83
2022-08-17T21:54:00.406Z,26.82
2022-08-17T21:56:36.580Z,26.79
2022-08-17T21:59:08.068Z,26.79
2022-08-17T22:01:38.641Z,26.80
2022-08-17T22:04:21.702Z,26.78
2022-08-17T22:06:57.063Z,26.79
2022-08-17T22:09:31.471Z,26.77
2022-08-17T22:12:06.262Z,26.75
2022-08-17T22:14:51.477Z,26.74
2022-08-17T22:17:25.847Z,26.70
2022-08-17T22:19:59.310Z,26.70
2022-08-17T22:22:58.154Z,26.68
2022-08-17T22:25:29.604Z,26.64
2022-08-17T22:28:01.161Z,26.63
2022-08-17T22:30:35.985Z,26.59
2022-08-17T22:33:36.913Z,26.52
2022-08-17T22:36:29.151Z,26.44
2022-08-17T22:38:59.242Z,26.42
2022-08-17T22:41:53.975Z,26.43
2022-08-17T22:44:28.070Z,26.46
2022-08-17T22:47:20.412Z,26.46
2022-08-17T22:49:57.769Z,26.43
2022-08-17T22:52:57.023Z,26.37
2022-08-17T22:55:44.137Z,26.32
2022-08-17T22:58:31.714Z,26.25
2022-08-17T23:01:25.572Z,26.18
2022-08-17T23:03:55.876Z,26.16
2022-08-17T23:06:24.798Z,26.11
2022-08-17T23:08:56.628Z,26.07
2022-08-17T23:11:42.994Z,26.03
2022-08-17T23:14:19.139Z,25.97
2022-08-17T23:16:48.262Z,25.90
2022-08-17T23:19:21.611Z,25.85
2022-08-17T23:21:55.343Z,25.80
2022-08-17T23:24:27.795Z,25.74
2022-08-17T23:26:58.142Z,25.72
2022-08-17T23:29:29.445Z,25.71
2022-08-17T23:31:59.999Z,25.67
2022-08-17T23:34:29.825Z,25.66
2022-08-17T23:36:58.328Z,25.64
2022-08-17T23:39:28.466Z,25.60
2022-08-17T23:41:57.932Z,25.60
2022-08-17T23:44:27.241Z,25.57
2022-08-17T23:46:56.087Z,25.56
2022-08-17T23:49:25.194Z,25.53
2022-08-17T23:51:55.260Z,25.51
2022-08-17T23:54:28.355Z,25.49
2022-08-17T23:56:56.739Z,25.44
2022-08-17T23:59:27.456Z,25.30
